createdAt,value
2022-07-31T00:02:08.741Z,18.60
2022-07-31T00:04:36.346Z,18.50
2022-07-31T00:07:03.623Z,18.40
2022-07-31T00:09:53.641Z,18.40
2022-07-31T00:12:18.039Z,18.40
2022-07-31T00:14:45.529Z,18.30
2022-07-31T00:17:12.609Z,18.30
2022-07-31T00:19:39.749Z,18.20
2022-07-31T00:22:06.603Z,18.10
2022-07-31T00:24:34.037Z,18.10
2022-07-31T00:27:01.549Z,18.10
2022-07-31T00:29:28.647Z,18.00
2022-07-31T00:31:55.625Z,18.00
2022-07-31T00:34:23.122Z,17.90
2022-07-31T00:36:50.045Z,17.90
2022-07-31T00:39:17.003Z,17.90
2022-07-31T00:41:45.833Z,17.90
2022-07-31T00:44:13.739Z,17.80
2022-07-31T00:46:42.231Z,17.70
2022-07-31T00:49:12.313Z,17.80
2022-07-31T00:51:40.463Z,17.80
2022-07-31T00:54:08.632Z,17.80
2022-07-31T00:56:36.179Z,17.80
2022-07-31T00:59:04.889Z,17.70
2022-07-31T01:01:32.402Z,17.70
2022-07-31T01:03:59.505Z,17.60
2022-07-31T01:06:26.839Z,17.60
2022-07-31T01:08:53.815Z,17.40
2022-07-31T01:11:47.581Z,17.40
2022-07-31T01:14:15.627Z,17.30
2022-07-31T01:16:48.367Z,17.20
2022-07-31T01:19:42.520Z,17.20
2022-07-31T01:22:32.999Z,17.20
2022-07-31T01:25:32.605Z,17.10
2022-07-31T01:28:33.219Z,17.10
2022-07-31T01:31:30.955Z,17.10
2022-07-31T01:34:05.591Z,17.00
2022-07-31T01:36:35.375Z,17.00
2022-07-31T01:39:03.652Z,17.10
2022-07-31T01:41:36.138Z,17.00
2022-07-31T01:44:05.365Z,17.00
2022-07-31T01:46:37.447Z,16.90
2022-07-31T01:49:11.168Z,16.80
2022-07-31T01:51:39.589Z,16.80
2022-07-31T01:54:07.429Z,16.80
2022-07-31T01:56:35.150Z,16.80
2022-07-31T01:59:04.060Z,16.70
2022-07-31T02:01:32.504Z,16.60
2022-07-31T02:04:03.077Z,16.60
2022-07-31T02:06:31.145Z,16.60
2022-07-31T02:09:01.007Z,16.50
2022-07-31T02:11:28.090Z,16.50
2022-07-31T02:13:57.356Z,16.50
2022-07-31T02:16:26.689Z,16.40
2022-07-31T02:18:55.432Z,16.40
2022-07-31T02:21:25.504Z,16.40
2022-07-31T02:23:52.594Z,16.40
2022-07-31T02:26:20.190Z,16.40
2022-07-31T02:28:48.745Z,16.40
2022-07-31T02:31:18.448Z,16.30
2022-07-31T02:33:47.181Z,16.20
2022-07-31T02:36:16.378Z,16.20
2022-07-31T02:38:44.186Z,16.20
2022-07-31T02:41:12.912Z,16.10
2022-07-31T02:43:40.853Z,16.10
2022-07-31T02:46:08.998Z,16.10
2022-07-31T02:48:37.305Z,16.10
2022-07-31T02:51:05.423Z,16.10
2022-07-31T02:53:33.558Z,16.10
2022-07-31T02:56:04.289Z,16.10
2022-07-31T02:58:31.395Z,16.00
2022-07-31T03:01:05.858Z,15.90
2022-07-31T03:03:33.106Z,15.90
2022-07-31T03:06:00.453Z,15.90
2022-07-31T03:08:28.309Z,15.80
2022-07-31T03:10:55.988Z,15.80
2022-07-31T03:13:25.837Z,15.80
2022-07-31T03:15:54.271Z,15.80
2022-07-31T03:18:21.834Z,15.80
2022-07-31T03:20:53.262Z,15.80
2022-07-31T03:23:22.658Z,15.70
2022-07-31T03:25:50.870Z,15.70
2022-07-31T03:28:21.995Z,15.70
2022-07-31T03:30:51.963Z,15.70
2022-07-31T03:33:23.659Z,15.70
2022-07-31T03:35:50.845Z,15.60
2022-07-31T03:38:38.304Z,15.60
2022-07-31T03:41:04.928Z,15.60
2022-07-31T03:43:44.246Z,15.60
2022-07-31T03:46:18.834Z,15.70
2022-07-31T03:48:46.474Z,15.70
2022-07-31T03:51:13.699Z,15.60
2022-07-31T03:53:41.445Z,15.60
2022-07-31T03:56:09.675Z,15.60
2022-07-31T03:58:38.636Z,15.50
2022-07-31T04:01:10.332Z,15.50
2022-07-31T04:03:39.751Z,15.50
2022-07-31T04:06:07.701Z,15.50
2022-07-31T04:08:34.919Z,15.50
2022-07-31T04:11:02.307Z,15.50
2022-07-31T04:13:29.215Z,15.50
2022-07-31T04:15:56.167Z,15.50
2022-07-31T04:18:23.136Z,15.40
2022-07-31T04:20:50.144Z,15.50
2022-07-31T04:23:17.231Z,15.50
2022-07-31T04:25:44.220Z,15.50
2022-07-31T04:28:11.345Z,15.50
2022-07-31T04:30:39.168Z,15.50
2022-07-31T04:33:06.410Z,15.50
2022-07-31T04:35:33.481Z,15.50
2022-07-31T04:38:00.451Z,15.60
2022-07-31T04:40:27.583Z,15.70
2022-07-31T04:42:55.374Z,15.80
2022-07-31T04:45:22.282Z,16.00
2022-07-31T04:47:49.300Z,16.30
2022-07-31T04:50:16.333Z,16.60
2022-07-31T04:52:43.334Z,16.70
2022-07-31T04:55:10.406Z,16.80
2022-07-31T04:57:37.483Z,16.80
2022-07-31T05:00:10.567Z,17.00
2022-07-31T05:02:38.260Z,17.20
2022-07-31T05:05:05.868Z,17.40
2022-07-31T05:07:32.910Z,17.40
2022-07-31T05:10:00.085Z,17.40
2022-07-31T05:12:27.594Z,17.40
2022-07-31T05:14:54.735Z,17.30
2022-07-31T05:17:22.044Z,17.30
2022-07-31T05:19:49.025Z,17.30
2022-07-31T05:22:15.855Z,17.20
2022-07-31T05:24:45.811Z,17.20
2022-07-31T05:27:12.945Z,17.30
2022-07-31T05:29:39.840Z,17.40
2022-07-31T05:32:07.142Z,17.50
2022-07-31T05:34:34.136Z,17.50
2022-07-31T05:37:02.113Z,17.60
2022-07-31T05:39:29.744Z,17.60
2022-07-31T05:41:56.697Z,17.70
2022-07-31T05:44:23.667Z,17.90
2022-07-31T05:49:19.563Z,18.00
2022-07-31T05:51:46.979Z,18.20
2022-07-31T05:54:14.463Z,18.40
2022-07-31T05:56:41.629Z,18.60
2022-07-31T05:59:09.708Z,18.70
2022-07-31T06:01:37.533Z,18.80
2022-07-31T06:04:04.750Z,18.80
2022-07-31T06:06:31.989Z,18.90
2022-07-31T06:09:04.125Z,19.00
2022-07-31T06:11:31.972Z,19.10
2022-07-31T06:13:58.986Z,19.10
2022-07-31T06:16:26.305Z,19.20
2022-07-31T06:18:53.249Z,19.30
2022-07-31T06:23:46.458Z,19.40
2022-07-31T06:26:13.369Z,19.40
2022-07-31T06:28:48.669Z,19.60
2022-07-31T06:31:21.031Z,19.70
2022-07-31T06:33:49.625Z,19.90
2022-07-31T06:36:17.989Z,20.00
2022-07-31T06:38:45.944Z,20.00
2022-07-31T06:41:36.361Z,20.20
2022-07-31T06:44:03.553Z,20.30
2022-07-31T06:46:30.519Z,20.30
2022-07-31T06:48:57.616Z,20.30
2022-07-31T06:51:32.280Z,20.40
2022-07-31T06:54:01.039Z,20.50
2022-07-31T06:56:29.500Z,20.70
2022-07-31T06:58:57.038Z,20.70
2022-07-31T07:01:24.169Z,20.80
2022-07-31T07:03:51.366Z,20.90
2022-07-31T07:06:18.449Z,21.00
2022-07-31T07:08:45.584Z,21.10
2022-07-31T07:11:12.641Z,21.30
2022-07-31T07:13:44.961Z,21.30
2022-07-31T07:16:14.374Z,21.40
2022-07-31T07:18:41.652Z,21.60
2022-07-31T07:21:09.005Z,21.70
2022-07-31T07:23:36.320Z,21.60
2022-07-31T07:26:04.233Z,21.70
2022-07-31T07:28:31.579Z,21.70
2022-07-31T07:30:59.036Z,21.80
2022-07-31T07:33:40.789Z,21.90
2022-07-31T07:36:23.302Z,22.00
2022-07-31T07:38:55.881Z,22.10
2022-07-31T07:41:24.391Z,22.30
2022-07-31T07:43:52.524Z,22.40
2022-07-31T07:46:21.154Z,22.60
2022-07-31T07:48:49.177Z,22.80
2022-07-31T07:51:16.644Z,22.90
2022-07-31T07:53:43.550Z,23.00
2022-07-31T07:56:10.472Z,23.20
2022-07-31T07:58:37.501Z,23.30
2022-07-31T08:01:04.724Z,23.40
2022-07-31T08:03:49.000Z,23.60
2022-07-31T08:06:20.156Z,23.90
2022-07-31T08:08:47.314Z,24.40
2022-07-31T08:11:16.891Z,24.60
2022-07-31T08:13:50.263Z,24.80
2022-07-31T08:16:20.247Z,25.10
2022-07-31T08:18:48.192Z,25.50
2022-07-31T08:21:15.280Z,25.70
2022-07-31T08:23:42.321Z,25.90
2022-07-31T08:26:09.627Z,26.20
2022-07-31T08:28:36.981Z,26.40
2022-07-31T08:31:04.114Z,26.60
2022-07-31T08:33:33.164Z,26.70
2022-07-31T08:36:00.962Z,26.80
2022-07-31T08:38:28.840Z,26.90
2022-07-31T08:40:56.047Z,27.00
2022-07-31T08:44:00.660Z,27.00
2022-07-31T08:46:10.928Z,27.10
2022-07-31T08:48:41.361Z,27.30
2022-07-31T08:51:12.418Z,27.60
2022-07-31T08:53:42.287Z,27.50
2022-07-31T08:56:10.314Z,27.50
2022-07-31T08:58:39.616Z,27.60
2022-07-31T09:01:08.778Z,27.90
2022-07-31T09:03:36.481Z,28.10
2022-07-31T09:06:05.040Z,28.30
2022-07-31T09:08:36.582Z,28.30
2022-07-31T09:11:08.230Z,28.60
2022-07-31T09:13:35.718Z,28.90
2022-07-31T09:16:03.667Z,29.20
2022-07-31T09:18:31.072Z,29.70
2022-07-31T09:21:00.518Z,30.00
2022-07-31T09:23:30.629Z,30.40
2022-07-31T09:26:05.167Z,30.40
2022-07-31T09:28:40.708Z,30.50
2022-07-31T09:31:09.382Z,30.80
2022-07-31T09:33:42.328Z,30.60
2022-07-31T09:36:12.619Z,30.30
2022-07-31T09:38:44.402Z,30.30
2022-07-31T09:41:26.850Z,30.60
2022-07-31T09:44:09.701Z,30.90
2022-07-31T09:46:46.184Z,31.00
2022-07-31T09:49:13.235Z,31.20
2022-07-31T09:51:48.398Z,31.50
2022-07-31T09:54:23.372Z,31.60
2022-07-31T09:56:50.616Z,32.00
2022-07-31T09:59:17.828Z,32.40
2022-07-31T10:01:49.195Z,32.40
2022-07-31T10:04:21.991Z,32.70
2022-07-31T10:06:51.190Z,33.30
2022-07-31T10:09:20.843Z,33.60
2022-07-31T10:11:49.951Z,33.80
2022-07-31T10:14:28.496Z,34.10
2022-07-31T10:16:59.144Z,34.30
2022-07-31T10:19:31.814Z,34.20
2022-07-31T10:22:01.867Z,33.90
2022-07-31T10:24:32.994Z,34.00
2022-07-31T10:27:01.863Z,34.20
2022-07-31T10:29:39.190Z,34.30
2022-07-31T10:32:07.516Z,34.30
2022-07-31T10:34:35.324Z,33.90
2022-07-31T10:37:32.313Z,33.40
2022-07-31T10:40:29.170Z,33.50
2022-07-31T10:43:20.461Z,33.30
2022-07-31T10:45:55.794Z,33.20
2022-07-31T10:48:23.621Z,33.40
2022-07-31T10:51:01.998Z,33.30
2022-07-31T10:53:51.131Z,33.00
2022-07-31T10:56:15.916Z,33.00
2022-07-31T10:58:56.994Z,33.00
2022-07-31T11:01:26.447Z,33.30
2022-07-31T11:03:59.803Z,33.50
2022-07-31T11:06:39.902Z,33.40
2022-07-31T11:09:06.946Z,33.30
2022-07-31T11:11:36.768Z,33.20
2022-07-31T11:14:04.253Z,33.30
2022-07-31T11:16:31.559Z,33.60
2022-07-31T11:19:08.333Z,33.70
2022-07-31T11:21:41.102Z,33.50
2022-07-31T11:24:23.382Z,33.60
2022-07-31T11:26:57.506Z,33.70
2022-07-31T11:30:01.279Z,33.60
2022-07-31T11:32:26.151Z,33.30
2022-07-31T11:34:57.279Z,33.30
2022-07-31T11:37:41.936Z,33.30
2022-07-31T11:40:14.003Z,33.10
2022-07-31T11:42:46.254Z,32.80
2022-07-31T11:45:15.305Z,32.90
2022-07-31T11:48:11.319Z,33.00
2022-07-31T11:50:41.716Z,33.30
2022-07-31T11:53:08.621Z,33.30
2022-07-31T11:55:50.080Z,33.60
2022-07-31T11:58:18.662Z,33.80
2022-07-31T12:00:50.765Z,34.10
2022-07-31T12:03:19.888Z,34.20
2022-07-31T12:05:52.523Z,33.90
2022-07-31T12:08:20.522Z,33.90
2022-07-31T12:10:48.254Z,34.00
2022-07-31T12:13:17.414Z,33.90
2022-07-31T12:16:08.092Z,33.30
2022-07-31T12:18:58.987Z,33.10
2022-07-31T12:21:37.880Z,33.20
2022-07-31T12:24:14.905Z,33.20
2022-07-31T12:26:51.332Z,33.50
2022-07-31T12:29:19.437Z,33.80
2022-07-31T12:31:50.604Z,33.90
2022-07-31T12:34:30.876Z,33.70
2022-07-31T12:37:13.333Z,33.60
2022-07-31T12:39:59.504Z,33.80
2022-07-31T12:42:36.472Z,34.30
2022-07-31T12:45:18.366Z,34.60
2022-07-31T12:47:51.809Z,34.70
2022-07-31T12:50:23.697Z,34.80
2022-07-31T12:52:51.060Z,34.90
2022-07-31T12:55:18.186Z,34.80
2022-07-31T12:57:50.317Z,34.40
2022-07-31T13:00:22.441Z,34.40
2022-07-31T13:02:49.830Z,34.90
2022-07-31T13:05:17.280Z,35.40
2022-07-31T13:07:44.297Z,35.70
2022-07-31T13:10:19.030Z,35.80
2022-07-31T13:12:50.840Z,35.80
2022-07-31T13:15:23.411Z,36.10
2022-07-31T13:17:51.181Z,35.90
2022-07-31T13:20:19.219Z,35.60
2022-07-31T13:22:46.299Z,35.40
2022-07-31T13:25:13.498Z,35.00
2022-07-31T13:27:41.565Z,34.90
2022-07-31T13:30:09.877Z,34.90
2022-07-31T13:32:37.065Z,35.00
2022-07-31T13:35:23.973Z,35.00
2022-07-31T13:37:52.124Z,35.30
2022-07-31T13:40:19.738Z,35.60
2022-07-31T13:42:46.631Z,35.70
2022-07-31T13:45:13.763Z,36.00
2022-07-31T13:47:50.492Z,36.20
2022-07-31T13:50:19.086Z,36.00
2022-07-31T13:52:46.289Z,36.10
2022-07-31T13:55:13.175Z,36.20
2022-07-31T13:57:40.179Z,36.20
2022-07-31T14:00:07.731Z,36.30
2022-07-31T14:02:34.772Z,36.10
2022-07-31T14:05:02.716Z,35.90
2022-07-31T14:07:45.632Z,35.80
2022-07-31T14:10:20.666Z,35.50
2022-07-31T14:12:48.658Z,35.30
2022-07-31T14:15:18.094Z,35.50
2022-07-31T14:17:45.177Z,35.40
2022-07-31T14:20:13.142Z,35.20
2022-07-31T14:22:40.305Z,35.10
2022-07-31T14:25:07.752Z,34.90
2022-07-31T14:27:34.979Z,34.60
2022-07-31T14:30:02.517Z,34.20
2022-07-31T14:32:30.826Z,34.00
2022-07-31T14:34:57.886Z,34.20
2022-07-31T14:37:24.949Z,34.60
2022-07-31T14:39:52.229Z,34.90
2022-07-31T14:42:22.495Z,34.90
2022-07-31T14:44:53.496Z,34.70
2022-07-31T14:47:20.462Z,34.40
2022-07-31T14:50:06.902Z,34.10
2022-07-31T14:52:34.539Z,33.80
2022-07-31T14:55:01.512Z,33.70
2022-07-31T14:57:30.149Z,33.70
2022-07-31T14:59:57.596Z,33.80
2022-07-31T15:02:25.086Z,33.70
2022-07-31T15:04:52.742Z,33.60
2022-07-31T15:07:39.447Z,33.50
2022-07-31T15:10:09.155Z,33.40
2022-07-31T15:12:36.185Z,33.20
2022-07-31T15:15:03.416Z,33.50
2022-07-31T15:17:30.345Z,33.70
2022-07-31T15:19:57.220Z,33.80
2022-07-31T15:22:24.135Z,34.00
2022-07-31T15:24:51.185Z,34.20
2022-07-31T15:27:20.855Z,34.30
2022-07-31T15:30:03.979Z,34.00
2022-07-31T15:32:34.117Z,33.80
2022-07-31T15:35:01.084Z,33.70
2022-07-31T15:37:28.176Z,33.70
2022-07-31T15:40:01.497Z,33.60
2022-07-31T15:42:34.745Z,33.60
2022-07-31T15:45:02.296Z,33.50
2022-07-31T15:47:29.396Z,33.40
2022-07-31T15:49:56.572Z,33.60
2022-07-31T15:52:24.096Z,33.60
2022-07-31T15:54:52.082Z,33.30
2022-07-31T15:57:21.345Z,33.10
2022-07-31T15:59:49.492Z,32.90
2022-07-31T16:02:17.264Z,32.90
2022-07-31T16:04:53.120Z,32.90
2022-07-31T16:08:28.877Z,32.90
2022-07-31T16:10:15.934Z,32.80
2022-07-31T16:12:48.088Z,32.80
2022-07-31T16:15:16.397Z,32.60
2022-07-31T16:17:44.298Z,32.50
2022-07-31T16:20:25.790Z,32.40
2022-07-31T16:23:01.607Z,32.30
2022-07-31T16:25:32.153Z,32.20
2022-07-31T16:28:03.589Z,32.20
2022-07-31T16:30:31.324Z,32.30
2022-07-31T16:32:58.304Z,32.40
2022-07-31T16:35:26.296Z,32.40
2022-07-31T16:37:54.314Z,32.20
2022-07-31T16:40:28.333Z,32.20
2022-07-31T16:43:46.798Z,32.30
2022-07-31T16:45:50.231Z,32.70
2022-07-31T16:48:17.288Z,33.00
2022-07-31T16:50:44.295Z,33.10
2022-07-31T16:54:11.198Z,33.00
2022-07-31T16:56:01.870Z,33.10
2022-07-31T16:58:29.299Z,33.20
2022-07-31T17:00:56.823Z,33.50
2022-07-31T17:04:01.843Z,33.40
2022-07-31T17:06:11.999Z,33.40
2022-07-31T17:08:38.963Z,33.20
2022-07-31T17:11:06.257Z,32.90
2022-07-31T17:13:33.179Z,32.60
2022-07-31T17:16:00.290Z,32.30
2022-07-31T17:18:27.204Z,31.80
2022-07-31T17:20:55.654Z,31.70
2022-07-31T17:23:43.589Z,31.50
2022-07-31T17:26:21.530Z,31.40
2022-07-31T17:28:50.764Z,31.10
2022-07-31T17:31:18.996Z,30.90
2022-07-31T17:33:58.485Z,30.80
2022-07-31T17:36:27.607Z,30.70
2022-07-31T17:38:54.576Z,30.50
2022-07-31T17:41:25.183Z,30.40
2022-07-31T17:43:56.310Z,30.40
2022-07-31T17:46:34.894Z,30.50
2022-07-31T17:49:19.688Z,30.40
2022-07-31T17:51:57.766Z,30.30
2022-07-31T17:54:26.605Z,30.20
2022-07-31T17:56:56.027Z,30.20
2022-07-31T17:59:23.379Z,30.20
2022-07-31T18:01:52.322Z,30.30
2022-07-31T18:04:31.367Z,30.40
2022-07-31T18:06:59.618Z,30.40
2022-07-31T18:09:27.988Z,30.50
2022-07-31T18:11:55.459Z,30.50
2022-07-31T18:14:24.625Z,30.50
2022-07-31T18:16:52.509Z,30.50
2022-07-31T18:19:21.371Z,30.50
2022-07-31T18:21:48.746Z,30.50
2022-07-31T18:24:16.324Z,30.60
2022-07-31T18:26:43.324Z,30.60
2022-07-31T18:29:10.981Z,30.50
2022-07-31T18:31:38.424Z,30.40
2022-07-31T18:34:05.725Z,30.20
2022-07-31T18:36:33.757Z,30.00
2022-07-31T18:39:01.346Z,29.80
2022-07-31T18:41:28.721Z,29.60
2022-07-31T18:43:55.849Z,29.50
2022-07-31T18:46:24.632Z,29.40
2022-07-31T18:48:55.545Z,29.30
2022-07-31T18:51:24.498Z,29.20
2022-07-31T18:53:52.092Z,29.10
2022-07-31T18:56:23.057Z,28.90
2022-07-31T18:58:50.123Z,28.80
2022-07-31T19:01:17.138Z,28.60
2022-07-31T19:03:44.213Z,28.50
2022-07-31T19:06:11.595Z,28.40
2022-07-31T19:08:38.984Z,28.30
2022-07-31T19:11:05.973Z,28.20
2022-07-31T19:13:33.137Z,28.00
2022-07-31T19:16:00.149Z,27.90
2022-07-31T19:18:28.631Z,27.80
2022-07-31T19:21:22.637Z,27.60
2022-07-31T19:23:46.897Z,27.50
2022-07-31T19:26:14.061Z,27.40
2022-07-31T19:28:43.317Z,27.40
2022-07-31T19:31:11.650Z,27.30
2022-07-31T19:33:38.876Z,27.20
2022-07-31T19:36:06.370Z,27.10
2022-07-31T19:38:36.039Z,27.00
2022-07-31T19:41:03.676Z,26.80
2022-07-31T19:43:31.040Z,26.70
2022-07-31T19:46:06.889Z,26.60
2022-07-31T19:48:44.429Z,26.60
2022-07-31T19:51:13.551Z,26.40
2022-07-31T19:53:41.638Z,26.40
2022-07-31T19:56:09.900Z,26.30
2022-07-31T19:58:38.565Z,26.30
2022-07-31T20:01:06.327Z,26.10
2022-07-31T20:03:34.328Z,26.00
2022-07-31T20:06:03.029Z,25.90
2022-07-31T20:08:33.395Z,25.80
2022-07-31T20:11:03.927Z,25.70
2022-07-31T20:13:35.391Z,25.60
2022-07-31T20:16:02.349Z,25.60
2022-07-31T20:18:30.496Z,25.50
2022-07-31T20:21:00.812Z,25.40
2022-07-31T20:23:28.254Z,25.30
2022-07-31T20:25:55.451Z,25.20
2022-07-31T20:28:23.015Z,25.20
2022-07-31T20:30:50.060Z,25.10
2022-07-31T20:33:17.526Z,25.10
2022-07-31T20:35:48.598Z,25.00
2022-07-31T20:38:24.194Z,24.90
2022-07-31T20:40:55.280Z,24.90
2022-07-31T20:43:25.165Z,24.80
2022-07-31T20:45:52.446Z,24.80
2022-07-31T20:48:21.580Z,24.70
2022-07-31T20:50:48.762Z,24.70
2022-07-31T20:53:16.670Z,24.70
2022-07-31T20:55:49.508Z,24.60
2022-07-31T20:58:21.592Z,24.50
2022-07-31T21:00:50.108Z,24.40
2022-07-31T21:03:18.681Z,24.40
2022-07-31T21:05:46.839Z,24.30
2022-07-31T21:08:13.986Z,24.20
2022-07-31T21:10:41.383Z,24.10
2022-07-31T21:13:08.906Z,24.10
2022-07-31T21:15:43.229Z,24.00
2022-07-31T21:18:16.025Z,23.90
2022-07-31T21:20:51.067Z,23.90
2022-07-31T21:23:22.084Z,23.80
2022-07-31T21:25:50.194Z,23.70
2022-07-31T21:28:17.493Z,23.60
2022-07-31T21:30:44.798Z,23.50
2022-07-31T21:33:11.894Z,23.50
2022-07-31T21:35:40.231Z,23.40
2022-07-31T21:38:11.785Z,23.30
2022-07-31T21:40:40.320Z,23.30
2022-07-31T21:43:08.341Z,23.20
2022-07-31T21:45:50.434Z,23.10
2022-07-31T21:48:25.167Z,23.00
2022-07-31T21:50:54.683Z,23.00
2022-07-31T21:53:22.346Z,22.90
2022-07-31T21:55:49.803Z,22.80
2022-07-31T21:58:17.759Z,22.70
2022-07-31T22:00:45.062Z,22.70
2022-07-31T22:03:12.573Z,22.60
2022-07-31T22:05:57.974Z,22.70
2022-07-31T22:08:25.400Z,22.60
2022-07-31T22:10:52.430Z,22.40
2022-07-31T22:13:19.901Z,22.40
2022-07-31T22:15:55.585Z,22.20
2022-07-31T22:18:32.549Z,22.20
2022-07-31T22:21:01.289Z,22.10
2022-07-31T22:23:29.350Z,22.10
2022-07-31T22:25:56.852Z,22.10
2022-07-31T22:28:25.711Z,22.00
2022-07-31T22:30:53.491Z,22.00
2022-07-31T22:33:21.880Z,21.80
2022-07-31T22:36:09.074Z,21.80
2022-07-31T22:38:38.049Z,21.70
2022-07-31T22:41:05.306Z,21.70
2022-07-31T22:44:12.481Z,21.60
2022-07-31T22:46:19.320Z,21.60
2022-07-31T22:48:46.686Z,21.50
2022-07-31T22:51:15.130Z,21.50
2022-07-31T22:53:43.545Z,21.40
2022-07-31T22:56:10.715Z,21.30
2022-07-31T22:58:37.695Z,21.30
2022-07-31T23:01:04.591Z,21.20
2022-07-31T23:03:32.198Z,21.10
2022-07-31T23:06:02.872Z,21.00
2022-07-31T23:08:53.572Z,21.00
2022-07-31T23:11:21.871Z,20.90
2022-07-31T23:13:48.919Z,20.90
2022-07-31T23:16:15.871Z,20.90
2022-07-31T23:18:42.809Z,20.90
2022-07-31T23:21:09.828Z,20.90
2022-07-31T23:23:37.543Z,20.90
2022-07-31T23:26:04.524Z,20.80
2022-07-31T23:28:31.428Z,20.70
2022-07-31T23:30:58.465Z,20.70
2022-07-31T23:33:25.474Z,20.60
2022-07-31T23:35:52.469Z,20.60
2022-07-31T23:38:19.437Z,20.60
2022-07-31T23:40:46.358Z,20.50
2022-07-31T23:43:13.275Z,20.50
2022-07-31T23:45:40.152Z,20.40
2022-07-31T23:48:07.924Z,20.40
2022-07-31T23:50:41.984Z,20.40
2022-07-31T23:53:08.986Z,20.30
2022-07-31T23:55:39.200Z,20.20
2022-07-31T23:58:10.486Z,20.10
